Disclaimer

Please do not use the information listed here in-flight or in-navigation, as they are not provided to us by the airports but are provided by volunteers, so they might be outdated.

Search


Regions


Airport information page

Radio informations:
CUIABA TWR - 118.1 MHz
CUIABA APP - 119.4 MHz

Airport informations:
Latitude: 15° 39' 10.55" S
Longitude: 056° 07' 00.19" W
Elevation: 617 feet - 188 meters
Operating hours: 24 hour operations
Operating agency: Civil government, landing fees and diplomatic clearance may be required
Timezone: UTC-4(-3DT)
Fuel: Jet A1, without icing nhibitor.

100/130 octane gasoline, leaded, MIL-L-5572F (GREEN)

Runway information:
17/35 - 7546 x 148 feet< - >2300 x 45 meters

Recent METARs:
SBCY 190800Z 16002KT 9999 -RA BKN005 OVC017 24/23 Q1012
SBCY 190800Z 16002KT 9999 -RA BKN005 OVC017 24/23 Q1012
SBCY 190900Z 12002KT 9999 -RA BKN008 OVC017 24/23 Q1012

Airport on the map: